sensor_id;sensor_type;location;lat;lon;timestamp;temperature;humidity
44729;DHT22;30457;53.590;9.922;2022-10-16T00:03:42;18.50;58.90
44729;DHT22;30457;53.590;9.922;2022-10-16T00:08:12;18.50;58.90
44729;DHT22;30457;53.590;9.922;2022-10-16T00:12:38;18.50;58.90
44729;DHT22;30457;53.590;9.922;2022-10-16T00:17:04;18.50;58.90
44729;DHT22;30457;53.590;9.922;2022-10-16T00:21:30;18.40;58.90
44729;DHT22;30457;53.590;9.922;2022-10-16T00:25:58;18.40;58.80
44729;DHT22;30457;53.590;9.922;2022-10-16T00:30:24;18.40;58.80
44729;DHT22;30457;53.590;9.922;2022-10-16T00:34:52;18.40;58.70
44729;DHT22;30457;53.590;9.922;2022-10-16T00:39:20;18.40;58.70
44729;DHT22;30457;53.590;9.922;2022-10-16T00:43:48;18.30;58.50
44729;DHT22;30457;53.590;9.922;2022-10-16T00:48:13;18.30;58.40
44729;DHT22;30457;53.590;9.922;2022-10-16T00:52:43;18.30;58.40
44729;DHT22;30457;53.590;9.922;2022-10-16T00:57:09;18.30;58.30
44729;DHT22;30457;53.590;9.922;2022-10-16T01:01:35;18.30;58.20
44729;DHT22;30457;53.590;9.922;2022-10-16T01:10:57;18.30;58.20
44729;DHT22;30457;53.590;9.922;2022-10-16T01:15:34;18.30;58.10
44729;DHT22;30457;53.590;9.922;2022-10-16T01:20:12;18.20;57.90
44729;DHT22;30457;53.590;9.922;2022-10-16T01:24:44;18.20;57.90
44729;DHT22;30457;53.590;9.922;2022-10-16T01:29:18;18.20;57.80
44729;DHT22;30457;53.590;9.922;2022-10-16T01:33:50;18.10;57.70
44729;DHT22;30457;53.590;9.922;2022-10-16T01:38:32;18.10;57.70
44729;DHT22;30457;53.590;9.922;2022-10-16T01:43:12;18.00;58.10
44729;DHT22;30457;53.590;9.922;2022-10-16T01:47:39;18.00;57.60
44729;DHT22;30457;53.590;9.922;2022-10-16T01:52:09;18.00;57.60
44729;DHT22;30457;53.590;9.922;2022-10-16T01:56:36;17.90;57.50
44729;DHT22;30457;53.590;9.922;2022-10-16T02:01:04;17.90;57.50
44729;DHT22;30457;53.590;9.922;2022-10-16T02:05:39;17.90;57.50
44729;DHT22;30457;53.590;9.922;2022-10-16T02:10:06;17.80;57.50
44729;DHT22;30457;53.590;9.922;2022-10-16T02:14:32;17.80;57.60
44729;DHT22;30457;53.590;9.922;2022-10-16T02:18:58;17.80;57.50
44729;DHT22;30457;53.590;9.922;2022-10-16T02:28:19;17.70;57.40
44729;DHT22;30457;53.590;9.922;2022-10-16T02:32:48;17.70;57.40
44729;DHT22;30457;53.590;9.922;2022-10-16T02:37:16;17.60;57.40
44729;DHT22;30457;53.590;9.922;2022-10-16T02:41:43;17.60;57.40
44729;DHT22;30457;53.590;9.922;2022-10-16T02:46:09;17.50;57.40
44729;DHT22;30457;53.590;9.922;2022-10-16T02:50:34;17.50;57.50
44729;DHT22;30457;53.590;9.922;2022-10-16T02:55:00;17.50;57.50
44729;DHT22;30457;53.590;9.922;2022-10-16T02:59:26;17.40;57.40
44729;DHT22;30457;53.590;9.922;2022-10-16T03:03:51;17.40;57.40
44729;DHT22;30457;53.590;9.922;2022-10-16T03:08:17;17.40;57.50
44729;DHT22;30457;53.590;9.922;2022-10-16T03:12:42;17.30;57.40
44729;DHT22;30457;53.590;9.922;2022-10-16T03:17:08;17.30;57.50
44729;DHT22;30457;53.590;9.922;2022-10-16T03:21:40;17.30;57.50
44729;DHT22;30457;53.590;9.922;2022-10-16T03:26:06;17.20;57.50
44729;DHT22;30457;53.590;9.922;2022-10-16T03:30:31;17.20;57.60
44729;DHT22;30457;53.590;9.922;2022-10-16T03:34:57;17.20;57.60
44729;DHT22;30457;53.590;9.922;2022-10-16T03:39:27;17.10;57.70
44729;DHT22;30457;53.590;9.922;2022-10-16T03:43:52;17.10;57.70
44729;DHT22;30457;53.590;9.922;2022-10-16T03:48:21;17.10;57.80
44729;DHT22;30457;53.590;9.922;2022-10-16T03:52:47;17.00;57.80
44729;DHT22;30457;53.590;9.922;2022-10-16T03:57:12;17.00;57.90
44729;DHT22;30457;53.590;9.922;2022-10-16T04:01:39;17.00;57.90
44729;DHT22;30457;53.590;9.922;2022-10-16T04:06:05;17.00;57.90
44729;DHT22;30457;53.590;9.922;2022-10-16T04:10:31;17.00;58.00
44729;DHT22;30457;53.590;9.922;2022-10-16T04:14:57;17.00;58.00
44729;DHT22;30457;53.590;9.922;2022-10-16T04:19:23;16.90;57.90
44729;DHT22;30457;53.590;9.922;2022-10-16T04:23:54;16.90;58.00
44729;DHT22;30457;53.590;9.922;2022-10-16T04:28:19;16.90;58.00
44729;DHT22;30457;53.590;9.922;2022-10-16T04:32:48;16.80;58.00
44729;DHT22;30457;53.590;9.922;2022-10-16T04:37:15;16.90;58.10
44729;DHT22;30457;53.590;9.922;2022-10-16T04:41:40;16.90;58.10
44729;DHT22;30457;53.590;9.922;2022-10-16T04:46:06;16.80;58.00
44729;DHT22;30457;53.590;9.922;2022-10-16T04:50:32;16.80;58.10
44729;DHT22;30457;53.590;9.922;2022-10-16T04:55:04;16.80;58.20
44729;DHT22;30457;53.590;9.922;2022-10-16T04:59:30;16.80;58.20
44729;DHT22;30457;53.590;9.922;2022-10-16T05:03:56;16.80;58.30
44729;DHT22;30457;53.590;9.922;2022-10-16T05:08:21;16.70;58.30
44729;DHT22;30457;53.590;9.922;2022-10-16T05:12:47;16.70;58.30
44729;DHT22;30457;53.590;9.922;2022-10-16T05:17:13;16.70;58.40
44729;DHT22;30457;53.590;9.922;2022-10-16T05:21:38;16.70;58.40
44729;DHT22;30457;53.590;9.922;2022-10-16T05:26:04;16.70;58.50
44729;DHT22;30457;53.590;9.922;2022-10-16T05:30:29;16.70;58.60
44729;DHT22;30457;53.590;9.922;2022-10-16T05:34:55;16.60;58.60
44729;DHT22;30457;53.590;9.922;2022-10-16T05:39:20;16.60;58.70
44729;DHT22;30457;53.590;9.922;2022-10-16T05:43:46;16.60;58.70
44729;DHT22;30457;53.590;9.922;2022-10-16T05:48:12;16.60;58.80
44729;DHT22;30457;53.590;9.922;2022-10-16T05:52:37;16.60;59.00
44729;DHT22;30457;53.590;9.922;2022-10-16T05:57:03;16.60;59.00
44729;DHT22;30457;53.590;9.922;2022-10-16T06:01:31;16.60;59.00
44729;DHT22;30457;53.590;9.922;2022-10-16T06:05:57;16.60;59.10
44729;DHT22;30457;53.590;9.922;2022-10-16T06:10:23;16.60;59.10
44729;DHT22;30457;53.590;9.922;2022-10-16T06:14:48;16.60;59.10
44729;DHT22;30457;53.590;9.922;2022-10-16T06:19:14;16.70;59.20
44729;DHT22;30457;53.590;9.922;2022-10-16T06:23:41;16.70;59.20
44729;DHT22;30457;53.590;9.922;2022-10-16T06:28:07;16.70;59.20
44729;DHT22;30457;53.590;9.922;2022-10-16T06:32:33;16.70;59.40
44729;DHT22;30457;53.590;9.922;2022-10-16T06:36:58;16.70;59.40
44729;DHT22;30457;53.590;9.922;2022-10-16T06:41:24;16.70;59.40
44729;DHT22;30457;53.590;9.922;2022-10-16T06:45:51;16.80;59.50
44729;DHT22;30457;53.590;9.922;2022-10-16T06:50:17;16.80;59.70
44729;DHT22;30457;53.590;9.922;2022-10-16T06:54:43;16.80;59.70
44729;DHT22;30457;53.590;9.922;2022-10-16T06:59:08;16.90;59.80
44729;DHT22;30457;53.590;9.922;2022-10-16T07:03:39;16.90;59.90
44729;DHT22;30457;53.590;9.922;2022-10-16T07:08:05;17.00;60.40
44729;DHT22;30457;53.590;9.922;2022-10-16T07:12:30;17.20;60.50
44729;DHT22;30457;53.590;9.922;2022-10-16T07:16:56;17.20;60.30
44729;DHT22;30457;53.590;9.922;2022-10-16T07:21:22;17.40;60.20
44729;DHT22;30457;53.590;9.922;2022-10-16T07:25:53;17.50;60.00
44729;DHT22;30457;53.590;9.922;2022-10-16T07:30:19;17.60;59.90
44729;DHT22;30457;53.590;9.922;2022-10-16T07:34:45;17.60;59.60
44729;DHT22;30457;53.590;9.922;2022-10-16T07:39:11;17.70;59.70
44729;DHT22;30457;53.590;9.922;2022-10-16T07:43:36;17.70;59.80
44729;DHT22;30457;53.590;9.922;2022-10-16T07:48:02;17.80;60.00
44729;DHT22;30457;53.590;9.922;2022-10-16T07:52:28;17.90;59.90
44729;DHT22;30457;53.590;9.922;2022-10-16T07:56:53;18.10;59.90
44729;DHT22;30457;53.590;9.922;2022-10-16T08:01:19;18.10;59.60
44729;DHT22;30457;53.590;9.922;2022-10-16T08:05:45;18.20;59.40
44729;DHT22;30457;53.590;9.922;2022-10-16T08:10:16;18.20;59.30
44729;DHT22;30457;53.590;9.922;2022-10-16T08:14:42;18.20;59.10
44729;DHT22;30457;53.590;9.922;2022-10-16T08:19:08;18.30;59.00
44729;DHT22;30457;53.590;9.922;2022-10-16T08:23:34;18.30;59.10
44729;DHT22;30457;53.590;9.922;2022-10-16T08:28:00;18.30;59.20
44729;DHT22;30457;53.590;9.922;2022-10-16T08:32:26;18.40;59.40
44729;DHT22;30457;53.590;9.922;2022-10-16T08:36:54;18.50;59.40
44729;DHT22;30457;53.590;9.922;2022-10-16T08:50:40;18.90;59.00
44729;DHT22;30457;53.590;9.922;2022-10-16T08:55:08;19.10;59.30
44729;DHT22;30457;53.590;9.922;2022-10-16T08:59:41;19.20;58.90
44729;DHT22;30457;53.590;9.922;2022-10-16T09:04:46;19.40;58.70
44729;DHT22;30457;53.590;9.922;2022-10-16T09:09:32;19.50;58.00
44729;DHT22;30457;53.590;9.922;2022-10-16T09:14:20;19.60;57.80
44729;DHT22;30457;53.590;9.922;2022-10-16T09:19:20;19.70;57.30
44729;DHT22;30457;53.590;9.922;2022-10-16T09:23:50;19.80;57.50
44729;DHT22;30457;53.590;9.922;2022-10-16T09:28:17;20.00;57.60
44729;DHT22;30457;53.590;9.922;2022-10-16T09:32:44;20.10;57.20
44729;DHT22;30457;53.590;9.922;2022-10-16T09:37:14;20.20;56.40
44729;DHT22;30457;53.590;9.922;2022-10-16T09:41:44;20.40;56.10
44729;DHT22;30457;53.590;9.922;2022-10-16T09:46:34;20.40;56.20
44729;DHT22;30457;53.590;9.922;2022-10-16T09:51:03;20.50;55.60
44729;DHT22;30457;53.590;9.922;2022-10-16T09:55:29;20.60;55.70
44729;DHT22;30457;53.590;9.922;2022-10-16T09:59:56;20.70;55.50
44729;DHT22;30457;53.590;9.922;2022-10-16T10:04:24;20.70;55.10
44729;DHT22;30457;53.590;9.922;2022-10-16T10:13:39;20.80;55.30
44729;DHT22;30457;53.590;9.922;2022-10-16T10:18:19;20.80;54.80
44729;DHT22;30457;53.590;9.922;2022-10-16T10:22:47;20.80;54.40
44729;DHT22;30457;53.590;9.922;2022-10-16T10:27:16;20.80;54.70
44729;DHT22;30457;53.590;9.922;2022-10-16T10:32:33;20.90;54.60
44729;DHT22;30457;53.590;9.922;2022-10-16T10:36:41;20.90;54.30
44729;DHT22;30457;53.590;9.922;2022-10-16T10:46:35;20.90;53.70
44729;DHT22;30457;53.590;9.922;2022-10-16T10:51:05;21.00;53.90
44729;DHT22;30457;53.590;9.922;2022-10-16T11:05:11;21.20;53.50
44729;DHT22;30457;53.590;9.922;2022-10-16T11:09:44;21.30;52.40
44729;DHT22;30457;53.590;9.922;2022-10-16T11:14:39;21.30;52.40
44729;DHT22;30457;53.590;9.922;2022-10-16T11:28:29;21.60;51.70
44729;DHT22;30457;53.590;9.922;2022-10-16T11:37:41;21.70;51.00
44729;DHT22;30457;53.590;9.922;2022-10-16T11:42:22;21.80;50.90
44729;DHT22;30457;53.590;9.922;2022-10-16T11:46:59;21.80;50.90
44729;DHT22;30457;53.590;9.922;2022-10-16T11:51:48;21.80;50.10
44729;DHT22;30457;53.590;9.922;2022-10-16T11:56:17;21.80;49.90
44729;DHT22;30457;53.590;9.922;2022-10-16T12:01:05;21.90;50.30
44729;DHT22;30457;53.590;9.922;2022-10-16T12:05:55;21.90;49.90
44729;DHT22;30457;53.590;9.922;2022-10-16T12:10:26;22.00;49.90
44729;DHT22;30457;53.590;9.922;2022-10-16T12:15:18;22.10;49.90
44729;DHT22;30457;53.590;9.922;2022-10-16T12:19:44;22.10;48.20
44729;DHT22;30457;53.590;9.922;2022-10-16T12:24:33;22.20;48.60
44729;DHT22;30457;53.590;9.922;2022-10-16T12:29:30;22.10;48.50
44729;DHT22;30457;53.590;9.922;2022-10-16T12:34:02;22.20;47.90
44729;DHT22;30457;53.590;9.922;2022-10-16T12:38:38;22.20;47.30
44729;DHT22;30457;53.590;9.922;2022-10-16T12:47:50;22.20;47.00
44729;DHT22;30457;53.590;9.922;2022-10-16T12:52:28;22.20;47.40
44729;DHT22;30457;53.590;9.922;2022-10-16T13:07:00;22.20;47.20
44729;DHT22;30457;53.590;9.922;2022-10-16T13:11:32;22.30;47.00
44729;DHT22;30457;53.590;9.922;2022-10-16T13:16:17;22.40;47.60
44729;DHT22;30457;53.590;9.922;2022-10-16T13:20:59;22.50;46.50
44729;DHT22;30457;53.590;9.922;2022-10-16T13:34:51;22.60;46.40
44729;DHT22;30457;53.590;9.922;2022-10-16T13:39:29;22.60;46.50
44729;DHT22;30457;53.590;9.922;2022-10-16T13:43:56;22.60;46.10
44729;DHT22;30457;53.590;9.922;2022-10-16T13:48:22;22.60;46.70
44729;DHT22;30457;53.590;9.922;2022-10-16T13:52:47;22.60;46.90
44729;DHT22;30457;53.590;9.922;2022-10-16T13:57:15;22.60;46.60
44729;DHT22;30457;53.590;9.922;2022-10-16T14:01:43;22.60;45.70
44729;DHT22;30457;53.590;9.922;2022-10-16T14:06:17;22.60;45.40
44729;DHT22;30457;53.590;9.922;2022-10-16T14:10:52;22.50;45.20
44729;DHT22;30457;53.590;9.922;2022-10-16T14:15:19;22.40;45.90
44729;DHT22;30457;53.590;9.922;2022-10-16T14:19:50;22.40;46.00
44729;DHT22;30457;53.590;9.922;2022-10-16T14:24:33;22.30;45.40
44729;DHT22;30457;53.590;9.922;2022-10-16T14:29:18;22.30;45.30
44729;DHT22;30457;53.590;9.922;2022-10-16T14:33:44;22.20;45.00
44729;DHT22;30457;53.590;9.922;2022-10-16T14:38:18;22.20;45.90
44729;DHT22;30457;53.590;9.922;2022-10-16T14:42:45;22.20;45.50
44729;DHT22;30457;53.590;9.922;2022-10-16T14:47:16;22.20;46.10
44729;DHT22;30457;53.590;9.922;2022-10-16T14:51:47;22.20;45.90
44729;DHT22;30457;53.590;9.922;2022-10-16T15:01:13;22.10;45.90
44729;DHT22;30457;53.590;9.922;2022-10-16T15:05:38;22.10;45.90
44729;DHT22;30457;53.590;9.922;2022-10-16T15:10:04;22.00;46.10
44729;DHT22;30457;53.590;9.922;2022-10-16T15:14:30;22.00;46.00
44729;DHT22;30457;53.590;9.922;2022-10-16T15:18:59;21.90;45.90
44729;DHT22;30457;53.590;9.922;2022-10-16T15:23:25;21.90;46.10
44729;DHT22;30457;53.590;9.922;2022-10-16T15:27:50;21.80;46.30
44729;DHT22;30457;53.590;9.922;2022-10-16T15:32:16;21.80;46.40
44729;DHT22;30457;53.590;9.922;2022-10-16T15:36:41;21.70;46.20
44729;DHT22;30457;53.590;9.922;2022-10-16T15:41:07;21.70;46.60
44729;DHT22;30457;53.590;9.922;2022-10-16T15:45:33;21.70;46.20
44729;DHT22;30457;53.590;9.922;2022-10-16T15:49:58;21.60;46.40
44729;DHT22;30457;53.590;9.922;2022-10-16T15:54:24;21.50;46.50
44729;DHT22;30457;53.590;9.922;2022-10-16T15:58:49;21.50;46.40
44729;DHT22;30457;53.590;9.922;2022-10-16T16:03:15;21.40;46.50
44729;DHT22;30457;53.590;9.922;2022-10-16T16:07:41;21.30;47.20
44729;DHT22;30457;53.590;9.922;2022-10-16T16:12:07;21.30;46.20
44729;DHT22;30457;53.590;9.922;2022-10-16T16:16:32;21.20;46.60
44729;DHT22;30457;53.590;9.922;2022-10-16T16:21:04;21.20;46.80
44729;DHT22;30457;53.590;9.922;2022-10-16T16:25:29;21.00;46.80
44729;DHT22;30457;53.590;9.922;2022-10-16T16:29:58;20.90;46.80
44729;DHT22;30457;53.590;9.922;2022-10-16T16:34:25;20.90;47.00
44729;DHT22;30457;53.590;9.922;2022-10-16T16:38:50;20.70;47.00
44729;DHT22;30457;53.590;9.922;2022-10-16T16:43:16;20.70;47.20
44729;DHT22;30457;53.590;9.922;2022-10-16T16:47:42;20.60;47.30
44729;DHT22;30457;53.590;9.922;2022-10-16T16:52:08;20.50;47.20
44729;DHT22;30457;53.590;9.922;2022-10-16T16:56:33;20.40;47.30
44729;DHT22;30457;53.590;9.922;2022-10-16T17:01:00;20.30;47.50
44729;DHT22;30457;53.590;9.922;2022-10-16T17:05:27;20.20;47.70
44729;DHT22;30457;53.590;9.922;2022-10-16T17:09:52;20.10;47.90
44729;DHT22;30457;53.590;9.922;2022-10-16T17:14:18;20.00;48.00
44729;DHT22;30457;53.590;9.922;2022-10-16T17:18:44;19.90;48.10
44729;DHT22;30457;53.590;9.922;2022-10-16T17:23:10;19.80;48.20
44729;DHT22;30457;53.590;9.922;2022-10-16T17:27:39;19.70;48.40
44729;DHT22;30457;53.590;9.922;2022-10-16T17:32:04;19.60;48.50
44729;DHT22;30457;53.590;9.922;2022-10-16T17:36:32;19.50;48.70
44729;DHT22;30457;53.590;9.922;2022-10-16T17:40:58;19.40;48.90
44729;DHT22;30457;53.590;9.922;2022-10-16T17:45:24;19.30;49.00
44729;DHT22;30457;53.590;9.922;2022-10-16T17:49:49;19.20;49.20
44729;DHT22;30457;53.590;9.922;2022-10-16T17:54:15;19.10;49.30
44729;DHT22;30457;53.590;9.922;2022-10-16T17:58:41;19.00;49.30
44729;DHT22;30457;53.590;9.922;2022-10-16T18:03:06;19.00;49.50
44729;DHT22;30457;53.590;9.922;2022-10-16T18:07:32;18.90;50.20
44729;DHT22;30457;53.590;9.922;2022-10-16T18:11:57;18.80;49.60
44729;DHT22;30457;53.590;9.922;2022-10-16T18:16:28;18.70;49.70
44729;DHT22;30457;53.590;9.922;2022-10-16T18:21:02;18.60;49.80
44729;DHT22;30457;53.590;9.922;2022-10-16T18:25:29;18.50;50.10
44729;DHT22;30457;53.590;9.922;2022-10-16T18:29:55;18.40;50.10
44729;DHT22;30457;53.590;9.922;2022-10-16T18:34:21;18.40;50.30
44729;DHT22;30457;53.590;9.922;2022-10-16T18:38:48;18.30;50.30
44729;DHT22;30457;53.590;9.922;2022-10-16T18:43:13;18.20;50.40
44729;DHT22;30457;53.590;9.922;2022-10-16T18:47:39;18.10;50.40
44729;DHT22;30457;53.590;9.922;2022-10-16T18:52:05;18.00;50.60
44729;DHT22;30457;53.590;9.922;2022-10-16T18:56:31;17.90;50.80
44729;DHT22;30457;53.590;9.922;2022-10-16T19:01:02;17.80;50.80
44729;DHT22;30457;53.590;9.922;2022-10-16T19:05:32;17.70;51.10
44729;DHT22;30457;53.590;9.922;2022-10-16T19:09:58;17.70;51.40
44729;DHT22;30457;53.590;9.922;2022-10-16T19:14:23;17.60;51.30
44729;DHT22;30457;53.590;9.922;2022-10-16T19:18:52;17.50;51.40
44729;DHT22;30457;53.590;9.922;2022-10-16T19:23:18;17.40;51.40
44729;DHT22;30457;53.590;9.922;2022-10-16T19:27:44;17.40;51.60
44729;DHT22;30457;53.590;9.922;2022-10-16T19:32:09;17.30;51.60
44729;DHT22;30457;53.590;9.922;2022-10-16T19:36:36;17.30;51.80
44729;DHT22;30457;53.590;9.922;2022-10-16T19:41:10;17.20;51.90
44729;DHT22;30457;53.590;9.922;2022-10-16T19:45:36;17.10;52.10
44729;DHT22;30457;53.590;9.922;2022-10-16T19:50:03;17.10;52.00
44729;DHT22;30457;53.590;9.922;2022-10-16T19:54:30;17.00;52.20
44729;DHT22;30457;53.590;9.922;2022-10-16T19:58:57;17.00;52.30
44729;DHT22;30457;53.590;9.922;2022-10-16T20:03:23;17.00;52.50
44729;DHT22;30457;53.590;9.922;2022-10-16T20:07:48;17.00;52.70
44729;DHT22;30457;53.590;9.922;2022-10-16T20:12:14;16.90;53.00
44729;DHT22;30457;53.590;9.922;2022-10-16T20:16:40;16.90;53.20
44729;DHT22;30457;53.590;9.922;2022-10-16T20:21:10;16.90;53.30
44729;DHT22;30457;53.590;9.922;2022-10-16T20:25:38;16.80;53.50
44729;DHT22;30457;53.590;9.922;2022-10-16T20:30:04;16.80;53.40
44729;DHT22;30457;53.590;9.922;2022-10-16T20:34:30;16.70;53.30
44729;DHT22;30457;53.590;9.922;2022-10-16T20:38:56;16.70;53.50
44729;DHT22;30457;53.590;9.922;2022-10-16T20:43:22;16.70;54.00
44729;DHT22;30457;53.590;9.922;2022-10-16T20:47:47;16.70;54.10
44729;DHT22;30457;53.590;9.922;2022-10-16T20:52:13;16.60;53.90
44729;DHT22;30457;53.590;9.922;2022-10-16T20:56:38;16.70;54.10
44729;DHT22;30457;53.590;9.922;2022-10-16T21:01:06;16.60;54.00
44729;DHT22;30457;53.590;9.922;2022-10-16T21:05:32;16.60;53.90
44729;DHT22;30457;53.590;9.922;2022-10-16T21:09:58;16.60;54.00
44729;DHT22;30457;53.590;9.922;2022-10-16T21:14:24;16.60;54.10
44729;DHT22;30457;53.590;9.922;2022-10-16T21:18:50;16.50;54.10
44729;DHT22;30457;53.590;9.922;2022-10-16T21:23:17;16.50;54.20
44729;DHT22;30457;53.590;9.922;2022-10-16T21:27:44;16.50;54.30
44729;DHT22;30457;53.590;9.922;2022-10-16T21:32:10;16.50;54.30
44729;DHT22;30457;53.590;9.922;2022-10-16T21:36:41;16.40;54.30
44729;DHT22;30457;53.590;9.922;2022-10-16T21:41:24;16.40;54.40
44729;DHT22;30457;53.590;9.922;2022-10-16T21:45:50;16.40;54.80
44729;DHT22;30457;53.590;9.922;2022-10-16T21:50:16;16.30;54.60
44729;DHT22;30457;53.590;9.922;2022-10-16T21:54:41;16.30;54.70
44729;DHT22;30457;53.590;9.922;2022-10-16T21:59:08;16.30;54.60
44729;DHT22;30457;53.590;9.922;2022-10-16T22:03:34;16.30;54.70
44729;DHT22;30457;53.590;9.922;2022-10-16T22:08:00;16.30;54.80
44729;DHT22;30457;53.590;9.922;2022-10-16T22:12:25;16.30;55.00
44729;DHT22;30457;53.590;9.922;2022-10-16T22:16:51;16.30;55.20
44729;DHT22;30457;53.590;9.922;2022-10-16T22:21:17;16.30;55.60
44729;DHT22;30457;53.590;9.922;2022-10-16T22:25:42;16.20;55.40
44729;DHT22;30457;53.590;9.922;2022-10-16T22:30:08;16.20;55.40
44729;DHT22;30457;53.590;9.922;2022-10-16T22:34:34;16.20;55.50
44729;DHT22;30457;53.590;9.922;2022-10-16T22:39:00;16.20;55.50
44729;DHT22;30457;53.590;9.922;2022-10-16T22:43:25;16.30;55.80
44729;DHT22;30457;53.590;9.922;2022-10-16T22:47:51;16.30;55.80
44729;DHT22;30457;53.590;9.922;2022-10-16T22:52:17;16.30;55.90
44729;DHT22;30457;53.590;9.922;2022-10-16T22:56:42;16.30;56.00
44729;DHT22;30457;53.590;9.922;2022-10-16T23:01:14;16.30;56.00
44729;DHT22;30457;53.590;9.922;2022-10-16T23:05:42;16.30;56.00
44729;DHT22;30457;53.590;9.922;2022-10-16T23:10:08;16.40;56.40
44729;DHT22;30457;53.590;9.922;2022-10-16T23:14:33;16.40;56.50
44729;DHT22;30457;53.590;9.922;2022-10-16T23:18:59;16.40;56.50
44729;DHT22;30457;53.590;9.922;2022-10-16T23:23:24;16.40;56.60
44729;DHT22;30457;53.590;9.922;2022-10-16T23:27:53;16.40;57.00
44729;DHT22;30457;53.590;9.922;2022-10-16T23:32:18;16.50;57.10
44729;DHT22;30457;53.590;9.922;2022-10-16T23:36:44;16.50;57.00
44729;DHT22;30457;53.590;9.922;2022-10-16T23:41:10;16.50;57.00
44729;DHT22;30457;53.590;9.922;2022-10-16T23:45:36;16.50;57.20
44729;DHT22;30457;53.590;9.922;2022-10-16T23:50:02;16.50;57.10
44729;DHT22;30457;53.590;9.922;2022-10-16T23:54:27;16.60;57.30
44729;DHT22;30457;53.590;9.922;2022-10-16T23:58:53;16.50;57.80
